Terminal Aerodrome Forecast
Issued by NWS

Home | Current Version | Previous Version | Text Only | Print | Product List | Glossary On
Versions: 1 2 3 4 5 6 7 8 9 10 11 12 13 14 15 16 17 18 19 20 21 22 23 24 25 26 27 28
000
FTUS43 KDVN 271300 AAC
TAFCID
TAF AMD
KCID 271302Z 2713/2812 28015G22KT P6SM SCT004 OVC010
     FM271600 29015KT P6SM OVC007
     FM271900 30014KT P6SM OVC011
     FM280000 30011KT P6SM BKN030
     FM280200 30008KT P6SM SCT030=

USA.gov is the U.S. government's official web portal to all federal, state and local government web resources and services.